createdAt,value
2016-06-28T00:02:05.306Z,18.3
2016-06-28T00:07:05.010Z,18.2
2016-06-28T00:12:05.141Z,18.1
2016-06-28T00:17:06.611Z,17.8
2016-06-28T00:22:05.135Z,17.5
2016-06-28T00:27:04.741Z,17.4
2016-06-28T00:32:05.554Z,17.4
2016-06-28T00:37:04.289Z,17.2
2016-06-28T00:42:05.111Z,17.2
2016-06-28T00:47:04.881Z,17.2
2016-06-28T00:52:05.084Z,17.2
2016-06-28T00:57:05.278Z,17.3
2016-06-28T01:02:05.675Z,17.3
2016-06-28T01:07:05.154Z,17.2
2016-06-28T01:12:05.348Z,17.3
2016-06-28T01:17:07.184Z,17.2
2016-06-28T01:22:05.552Z,17.2
2016-06-28T01:27:04.435Z,17.2
2016-06-28T01:32:06.023Z,16.9
2016-06-28T01:37:04.963Z,16.8
2016-06-28T01:42:05.660Z,16.8
2016-06-28T01:47:04.964Z,16.8
2016-06-28T01:52:05.599Z,16.8
2016-06-28T01:57:04.891Z,16.8
2016-06-28T02:02:04.879Z,16.8
2016-06-28T02:07:04.934Z,16.8
2016-06-28T02:12:05.334Z,16.8
2016-06-28T02:17:07.003Z,16.7
2016-06-28T02:22:05.111Z,16.6
2016-06-28T02:27:04.952Z,16.6
2016-06-28T02:32:05.623Z,16.5
2016-06-28T02:37:05.111Z,16.2
2016-06-28T02:42:05.260Z,16.1
2016-06-28T02:47:14.709Z,16.0
2016-06-28T02:52:05.498Z,16.0
2016-06-28T02:57:03.821Z,16.0
2016-06-28T03:02:24.386Z,15.8
2016-06-28T03:07:06.476Z,15.8
2016-06-28T03:12:06.998Z,15.8
2016-06-28T03:17:19.777Z,15.7
2016-06-28T03:22:09.755Z,15.6
2016-06-28T03:27:06.613Z,15.6
2016-06-28T03:32:18.163Z,15.7
2016-06-28T03:37:06.071Z,15.8
2016-06-28T03:42:08.167Z,15.7
2016-06-28T03:47:23.577Z,15.8
2016-06-28T03:52:07.232Z,15.8
2016-06-28T03:57:06.947Z,16.1
2016-06-28T04:02:17.921Z,16.0
2016-06-28T04:07:09.549Z,16.2
2016-06-28T04:12:07.387Z,16.2
2016-06-28T04:17:26.492Z,16.4
2016-06-28T04:22:04.314Z,16.3
2016-06-28T04:27:07.227Z,16.7
2016-06-28T04:32:23.742Z,16.9
2016-06-28T04:37:06.074Z,17.0
2016-06-28T04:42:04.633Z,17.0
2016-06-28T04:47:18.449Z,17.0
2016-06-28T04:52:03.571Z,17.2
2016-06-28T04:57:04.767Z,17.2
2016-06-28T05:02:22.764Z,17.8
2016-06-28T05:07:04.408Z,18.1
2016-06-28T05:12:04.701Z,18.4
2016-06-28T05:17:27.193Z,18.6
2016-06-28T05:22:08.965Z,18.7
2016-06-28T05:27:03.860Z,18.7
2016-06-28T05:32:22.027Z,19.3
2016-06-28T05:37:05.462Z,19.6
2016-06-28T05:42:05.955Z,19.5
2016-06-28T05:47:18.651Z,19.7
2016-06-28T05:52:03.926Z,20.3
2016-06-28T05:57:04.160Z,20.8
2016-06-28T06:02:18.411Z,21.6
2016-06-28T06:07:04.604Z,21.5
2016-06-28T06:12:05.481Z,22.6
2016-06-28T06:17:18.398Z,22.5
2016-06-28T06:22:04.866Z,22.9
2016-06-28T06:27:04.674Z,23.5
2016-06-28T06:32:22.662Z,24.1
2016-06-28T06:37:05.173Z,24.3
2016-06-28T06:42:06.648Z,24.3
2016-06-28T06:47:22.654Z,23.9
2016-06-28T06:52:05.694Z,23.9
2016-06-28T06:57:06.434Z,24.1
2016-06-28T07:02:18.295Z,24.0
2016-06-28T07:07:09.188Z,24.1
2016-06-28T07:12:08.446Z,23.9
2016-06-28T07:17:24.818Z,23.9
2016-06-28T07:22:08.427Z,24.1
2016-06-28T07:27:06.617Z,24.4
2016-06-28T07:32:21.796Z,24.7
2016-06-28T07:37:07.928Z,24.9
2016-06-28T07:42:07.640Z,24.9
2016-06-28T07:47:18.097Z,25.5
2016-06-28T07:52:07.884Z,25.3
2016-06-28T07:57:08.611Z,25.3
2016-06-28T08:07:08.919Z,24.6
2016-06-28T08:12:07.833Z,24.6
2016-06-28T08:17:26.511Z,24.6
2016-06-28T08:22:08.088Z,25.1
2016-06-28T08:27:10.086Z,25.6
2016-06-28T08:32:20.657Z,26.9
2016-06-28T08:37:09.567Z,26.8
2016-06-28T08:42:08.157Z,27.2
2016-06-28T08:47:17.994Z,26.9
2016-06-28T08:52:07.369Z,26.1
2016-06-28T08:57:08.967Z,25.7
2016-06-28T09:02:18.009Z,25.8
2016-06-28T09:07:09.787Z,25.9
2016-06-28T09:12:08.773Z,26.2
2016-06-28T09:17:25.666Z,26.6
2016-06-28T09:22:08.231Z,26.5
2016-06-28T09:27:08.396Z,27.3
2016-06-28T09:32:18.190Z,27.1
2016-06-28T09:37:08.973Z,26.7
2016-06-28T09:42:07.347Z,26.5
2016-06-28T09:47:19.037Z,26.5
2016-06-28T09:52:08.424Z,26.8
2016-06-28T09:57:08.260Z,26.8
2016-06-28T10:02:18.532Z,27.1
2016-06-28T10:07:10.419Z,28.0
2016-06-28T10:12:09.164Z,28.5
2016-06-28T10:17:20.382Z,28.5
2016-06-28T10:22:05.149Z,28.2
2016-06-28T10:27:06.565Z,28.2
2016-06-28T10:32:19.138Z,28.0
2016-06-28T10:37:09.758Z,27.9
2016-06-28T10:42:09.030Z,28.7
2016-06-28T10:47:24.423Z,28.7
2016-06-28T10:52:07.978Z,29.1
2016-06-28T10:57:07.472Z,29.3
2016-06-28T11:02:18.704Z,29.3
2016-06-28T11:07:11.120Z,30.2
2016-06-28T11:12:10.054Z,30.2
2016-06-28T11:17:25.736Z,30.6
2016-06-28T11:22:08.847Z,30.5
2016-06-28T11:27:09.636Z,30.5
2016-06-28T11:32:19.135Z,30.3
2016-06-28T11:37:08.949Z,30.0
2016-06-28T11:42:09.586Z,30.0
2016-06-28T11:47:23.500Z,30.1
2016-06-28T11:52:09.710Z,30.1
2016-06-28T11:57:08.420Z,30.7
2016-06-28T12:02:18.838Z,30.4
2016-06-28T12:07:09.357Z,30.5
2016-06-28T12:12:09.842Z,30.4
2016-06-28T12:17:25.733Z,30.4
2016-06-28T12:22:09.059Z,31.2
2016-06-28T12:27:08.486Z,31.7
2016-06-28T12:32:24.259Z,31.6
2016-06-28T12:37:10.307Z,31.8
2016-06-28T12:42:08.087Z,31.8
2016-06-28T12:47:23.666Z,31.0
2016-06-28T12:52:05.822Z,30.9
2016-06-28T12:57:08.266Z,31.0
2016-06-28T13:02:23.641Z,30.8
2016-06-28T13:07:11.318Z,31.7
2016-06-28T13:12:07.090Z,31.8
2016-06-28T13:17:21.705Z,32.2
2016-06-28T13:22:08.036Z,32.3
2016-06-28T13:27:07.301Z,32.3
2016-06-28T13:32:18.895Z,31.8
2016-06-28T13:37:10.619Z,31.4
2016-06-28T13:42:09.399Z,33.9
2016-06-28T13:47:19.526Z,33.9
2016-06-28T13:52:05.959Z,35.1
2016-06-28T13:57:08.651Z,35.1
2016-06-28T20:02:12.639Z,21.1
2016-06-28T20:07:03.952Z,21.1
2016-06-28T20:12:05.101Z,21.1
2016-06-28T20:17:09.488Z,21.0
2016-06-28T20:22:04.564Z,21.0
2016-06-28T20:27:04.932Z,21.0
2016-06-28T20:32:04.617Z,20.9
2016-06-28T20:37:04.677Z,20.8
2016-06-28T20:42:04.545Z,20.8
2016-06-28T20:47:03.923Z,20.7
2016-06-28T20:52:04.461Z,20.6
2016-06-28T20:57:04.178Z,20.5
2016-06-28T21:02:06.128Z,20.5
2016-06-28T21:07:04.751Z,20.3
2016-06-28T21:12:04.909Z,20.3
2016-06-28T21:17:07.103Z,20.0
2016-06-28T21:22:04.948Z,20.0
2016-06-28T21:27:05.253Z,19.9
2016-06-28T21:32:05.780Z,19.8
2016-06-28T21:37:04.874Z,19.5
2016-06-28T21:42:04.916Z,19.5
2016-06-28T21:47:05.096Z,19.5
2016-06-28T21:52:04.951Z,19.5
2016-06-28T21:57:04.947Z,19.4
2016-06-28T22:02:05.309Z,19.4
2016-06-28T22:07:04.592Z,19.4
2016-06-28T22:12:04.909Z,19.4
2016-06-28T22:17:07.344Z,19.5
2016-06-28T22:22:04.726Z,19.4
2016-06-28T22:27:05.547Z,19.4
2016-06-28T22:32:05.173Z,19.4
2016-06-28T22:37:05.185Z,19.4
2016-06-28T22:42:05.270Z,19.3
2016-06-28T22:47:05.959Z,19.2
2016-06-28T22:52:05.489Z,19.1
2016-06-28T22:57:05.672Z,19.1
2016-06-28T23:02:05.674Z,19.0
2016-06-28T23:07:04.337Z,19.0
2016-06-28T23:12:05.029Z,19.0
2016-06-28T23:17:06.641Z,18.7
2016-06-28T23:22:05.875Z,18.7
2016-06-28T23:27:04.384Z,18.8
2016-06-28T23:32:04.976Z,18.8
2016-06-28T23:37:04.953Z,18.6
2016-06-28T23:42:05.047Z,18.4
2016-06-28T23:47:05.117Z,18.4
2016-06-28T23:52:05.625Z,18.5
2016-06-28T23:57:05.677Z,18.5
